aviador You're here:

GCXO Decoded Metar

TENERIFE in SPAIN
Report Time2018-07-22 07:00:00
UTC Time2018-07-22 07:12:04
Flight Rules vfr VFR
Wind300° at 17 kt
W.Decomp.*RWY 30: 16.9 kt HW 1.5 kt RCW
W.Rank300° ranks 2
Current wind is above 300° avg. (13.8)
Visibility9999 m
Phenomena:N/A
Clouds:Few 004 Hf
Scattered 008 Hf
Expected CloudBase > 400 ft AGL from Temp-Dew spread
CeilingNone
Temp16°C (ISA +5)
Dew Point15°C (94% RH)
AAT11.5°C
QNH1019 hPa
Density Alt2,710 ft
Elevation2,073 ft
Report Wrong Elevation
Raw Report
METAR GCXO 220700Z 30017KT 9999 FEW004 SCT008 16/15 Q1019 NOSIG=

Extra information for GCXO:More info

Metar Taf Metar & Taf Last 4 Metars F.Rules Stats Wind Profile Meteogram Temp Stats Airport Information Weather charts Add Link Nearby VenuesMetar ALERT Operation Metar Decoded Social comments